sensor_id;sensor_type;location;lat;lon;timestamp;pressure;altitude;pressure_sealevel;temperature;humidity
63190;BME280;49286;44.460;26.114;2023-03-05T00:02:03;99880.50;;;4.59;100.00
63190;BME280;49286;44.460;26.114;2023-03-05T00:04:28;99993.13;;;5.16;100.00
63190;BME280;49286;44.460;26.114;2023-03-05T00:06:54;99848.91;;;4.31;100.00
63190;BME280;49286;44.460;26.114;2023-03-05T00:09:20;99877.63;;;4.40;100.00
63190;BME280;49286;44.460;26.114;2023-03-05T00:11:45;99876.03;;;4.50;100.00
63190;BME280;49286;44.460;26.114;2023-03-05T00:14:11;99973.50;;;4.80;100.00
63190;BME280;49286;44.460;26.114;2023-03-05T00:16:37;99842.34;;;4.01;100.00
63190;BME280;49286;44.460;26.114;2023-03-05T00:19:03;99950.97;;;4.79;100.00
63190;BME280;49286;44.460;26.114;2023-03-05T00:21:37;99843.41;;;4.14;100.00
63190;BME280;49286;44.460;26.114;2023-03-05T00:24:07;99827.31;;;3.84;100.00
63190;BME280;49286;44.460;26.114;2023-03-05T00:26:35;99830.81;;;3.84;100.00
63190;BME280;49286;44.460;26.114;2023-03-05T00:29:04;99859.72;;;4.07;100.00
63190;BME280;49286;44.460;26.114;2023-03-05T00:31:30;99831.63;;;3.83;100.00
63190;BME280;49286;44.460;26.114;2023-03-05T00:34:07;99849.84;;;3.86;100.00
63190;BME280;49286;44.460;26.114;2023-03-05T00:36:37;99851.59;;;3.87;100.00
63190;BME280;49286;44.460;26.114;2023-03-05T00:39:03;99959.38;;;4.62;100.00
63190;BME280;49286;44.460;26.114;2023-03-05T00:41:28;99951.75;;;4.75;100.00
63190;BME280;49286;44.460;26.114;2023-03-05T00:43:54;99805.59;;;3.78;100.00
63190;BME280;49286;44.460;26.114;2023-03-05T00:46:20;99843.78;;;3.86;100.00
63190;BME280;49286;44.460;26.114;2023-03-05T00:48:46;99891.19;;;4.26;100.00
63190;BME280;49286;44.460;26.114;2023-03-05T00:51:11;99949.69;;;4.52;100.00
63190;BME280;49286;44.460;26.114;2023-03-05T00:53:37;99942.13;;;4.66;100.00
63190;BME280;49286;44.460;26.114;2023-03-05T00:56:03;99809.66;;;3.64;100.00
63190;BME280;49286;44.460;26.114;2023-03-05T00:58:28;99925.28;;;4.44;100.00
63190;BME280;49286;44.460;26.114;2023-03-05T01:00:57;99808.19;;;3.77;100.00
63190;BME280;49286;44.460;26.114;2023-03-05T01:03:23;99940.22;;;4.57;100.00
63190;BME280;49286;44.460;26.114;2023-03-05T01:05:48;99804.81;;;3.83;100.00
63190;BME280;49286;44.460;26.114;2023-03-05T01:08:14;99892.84;;;4.20;100.00
63190;BME280;49286;44.460;26.114;2023-03-05T01:10:41;99918.13;;;4.31;100.00
63190;BME280;49286;44.460;26.114;2023-03-05T01:13:06;99919.75;;;4.24;100.00
63190;BME280;49286;44.460;26.114;2023-03-05T01:15:32;99906.03;;;4.31;100.00
63190;BME280;49286;44.460;26.114;2023-03-05T01:17:57;99818.53;;;3.75;100.00
63190;BME280;49286;44.460;26.114;2023-03-05T01:20:23;99939.28;;;4.52;100.00
63190;BME280;49286;44.460;26.114;2023-03-05T01:22:48;99920.75;;;4.32;100.00
63190;BME280;49286;44.460;26.114;2023-03-05T01:25:15;99803.56;;;3.62;100.00
63190;BME280;49286;44.460;26.114;2023-03-05T01:27:41;99911.88;;;4.19;100.00
63190;BME280;49286;44.460;26.114;2023-03-05T01:30:07;99791.06;;;3.40;100.00
63190;BME280;49286;44.460;26.114;2023-03-05T01:32:34;99937.22;;;4.34;100.00
63190;BME280;49286;44.460;26.114;2023-03-05T01:35:00;99949.03;;;4.15;100.00
63190;BME280;49286;44.460;26.114;2023-03-05T01:37:26;99909.63;;;3.91;100.00
63190;BME280;49286;44.460;26.114;2023-03-05T01:39:51;99789.19;;;3.32;100.00
63190;BME280;49286;44.460;26.114;2023-03-05T01:42:17;99919.63;;;4.18;100.00
63190;BME280;49286;44.460;26.114;2023-03-05T01:45:08;99763.94;;;3.22;100.00
63190;BME280;49286;44.460;26.114;2023-03-05T01:47:34;99938.59;;;4.12;100.00
63190;BME280;49286;44.460;26.114;2023-03-05T01:50:00;99763.13;;;3.23;100.00
63190;BME280;49286;44.460;26.114;2023-03-05T01:52:26;99941.91;;;4.05;100.00
63190;BME280;49286;44.460;26.114;2023-03-05T01:54:56;99948.25;;;4.21;100.00
63190;BME280;49286;44.460;26.114;2023-03-05T01:57:36;99932.66;;;4.19;100.00
63190;BME280;49286;44.460;26.114;2023-03-05T02:00:09;99805.09;;;3.49;100.00
63190;BME280;49286;44.460;26.114;2023-03-05T02:02:35;99822.16;;;3.38;100.00
63190;BME280;49286;44.460;26.114;2023-03-05T02:05:06;99912.28;;;3.94;100.00
63190;BME280;49286;44.460;26.114;2023-03-05T02:07:32;99933.34;;;4.11;100.00
63190;BME280;49286;44.460;26.114;2023-03-05T02:10:12;99933.50;;;4.18;100.00
63190;BME280;49286;44.460;26.114;2023-03-05T02:12:38;99932.44;;;4.09;100.00
63190;BME280;49286;44.460;26.114;2023-03-05T02:15:04;99930.19;;;3.81;100.00
63190;BME280;49286;44.460;26.114;2023-03-05T02:17:30;99928.94;;;4.05;100.00
63190;BME280;49286;44.460;26.114;2023-03-05T02:20:03;99798.19;;;3.06;100.00
63190;BME280;49286;44.460;26.114;2023-03-05T02:22:28;99941.84;;;4.00;100.00
63190;BME280;49286;44.460;26.114;2023-03-05T02:24:54;99827.84;;;3.19;100.00
63190;BME280;49286;44.460;26.114;2023-03-05T02:27:24;99930.69;;;3.62;100.00
63190;BME280;49286;44.460;26.114;2023-03-05T02:29:59;99911.94;;;3.33;100.00
63190;BME280;49286;44.460;26.114;2023-03-05T02:32:25;99930.59;;;3.56;100.00
63190;BME280;49286;44.460;26.114;2023-03-05T02:34:50;99783.94;;;2.85;100.00
63190;BME280;49286;44.460;26.114;2023-03-05T02:37:16;99897.66;;;3.53;100.00
63190;BME280;49286;44.460;26.114;2023-03-05T02:39:41;99803.97;;;2.94;100.00
63190;BME280;49286;44.460;26.114;2023-03-05T02:42:07;99802.53;;;2.66;100.00
63190;BME280;49286;44.460;26.114;2023-03-05T02:44:33;99908.53;;;3.35;100.00
63190;BME280;49286;44.460;26.114;2023-03-05T02:46:58;99821.13;;;2.87;100.00
63190;BME280;49286;44.460;26.114;2023-03-05T02:49:24;99816.59;;;2.77;100.00
63190;BME280;49286;44.460;26.114;2023-03-05T02:51:49;99942.50;;;3.48;100.00
63190;BME280;49286;44.460;26.114;2023-03-05T02:54:15;99951.91;;;3.43;100.00
63190;BME280;49286;44.460;26.114;2023-03-05T02:56:40;99808.75;;;2.74;100.00
63190;BME280;49286;44.460;26.114;2023-03-05T02:59:08;99947.00;;;3.56;100.00
63190;BME280;49286;44.460;26.114;2023-03-05T03:01:33;99935.41;;;3.39;100.00
63190;BME280;49286;44.460;26.114;2023-03-05T03:03:59;99912.72;;;3.29;100.00
63190;BME280;49286;44.460;26.114;2023-03-05T03:06:24;99807.06;;;2.76;100.00
63190;BME280;49286;44.460;26.114;2023-03-05T03:08:50;99939.00;;;3.44;100.00
63190;BME280;49286;44.460;26.114;2023-03-05T03:11:15;99794.59;;;2.58;100.00
63190;BME280;49286;44.460;26.114;2023-03-05T03:13:42;99928.34;;;3.32;100.00
63190;BME280;49286;44.460;26.114;2023-03-05T03:16:12;99944.84;;;3.35;100.00
63190;BME280;49286;44.460;26.114;2023-03-05T03:18:39;99814.50;;;2.61;100.00
63190;BME280;49286;44.460;26.114;2023-03-05T03:21:05;99857.03;;;2.70;100.00
63190;BME280;49286;44.460;26.114;2023-03-05T03:23:32;99921.81;;;3.10;100.00
63190;BME280;49286;44.460;26.114;2023-03-05T03:25:57;99922.63;;;3.07;100.00
63190;BME280;49286;44.460;26.114;2023-03-05T03:28:23;99764.38;;;2.19;100.00
63190;BME280;49286;44.460;26.114;2023-03-05T03:30:49;99903.78;;;3.14;100.00
63190;BME280;49286;44.460;26.114;2023-03-05T03:33:15;99777.97;;;2.48;100.00
63190;BME280;49286;44.460;26.114;2023-03-05T03:35:45;99743.66;;;2.19;100.00
63190;BME280;49286;44.460;26.114;2023-03-05T03:38:11;99901.28;;;3.21;100.00
63190;BME280;49286;44.460;26.114;2023-03-05T03:40:39;99844.47;;;2.89;100.00
63190;BME280;49286;44.460;26.114;2023-03-05T03:43:05;99847.13;;;2.90;100.00
63190;BME280;49286;44.460;26.114;2023-03-05T03:45:30;99878.31;;;2.95;100.00
63190;BME280;49286;44.460;26.114;2023-03-05T03:47:56;99883.53;;;2.98;100.00
63190;BME280;49286;44.460;26.114;2023-03-05T03:50:21;99911.41;;;3.08;100.00
63190;BME280;49286;44.460;26.114;2023-03-05T03:52:49;99911.13;;;2.96;100.00
63190;BME280;49286;44.460;26.114;2023-03-05T03:55:15;99757.47;;;2.20;100.00
63190;BME280;49286;44.460;26.114;2023-03-05T03:57:40;99905.50;;;3.14;100.00
63190;BME280;49286;44.460;26.114;2023-03-05T04:00:08;99754.44;;;2.01;100.00
63190;BME280;49286;44.460;26.114;2023-03-05T04:02:35;99878.88;;;2.83;100.00
63190;BME280;49286;44.460;26.114;2023-03-05T04:05:00;99871.59;;;2.67;100.00
63190;BME280;49286;44.460;26.114;2023-03-05T04:07:26;99806.69;;;2.58;100.00
63190;BME280;49286;44.460;26.114;2023-03-05T04:09:51;99892.44;;;3.09;100.00
63190;BME280;49286;44.460;26.114;2023-03-05T04:12:17;99872.22;;;2.94;100.00
63190;BME280;49286;44.460;26.114;2023-03-05T04:14:48;99649.22;;;1.62;100.00
63190;BME280;49286;44.460;26.114;2023-03-05T04:17:14;99903.16;;;2.87;100.00
63190;BME280;49286;44.460;26.114;2023-03-05T04:19:40;99899.88;;;2.94;100.00
63190;BME280;49286;44.460;26.114;2023-03-05T04:22:10;99744.22;;;2.06;100.00
63190;BME280;49286;44.460;26.114;2023-03-05T04:24:36;99869.59;;;2.53;100.00
63190;BME280;49286;44.460;26.114;2023-03-05T04:27:03;99793.59;;;2.15;100.00
63190;BME280;49286;44.460;26.114;2023-03-05T04:29:28;99879.63;;;2.78;100.00
63190;BME280;49286;44.460;26.114;2023-03-05T04:31:54;99909.53;;;2.63;100.00
63190;BME280;49286;44.460;26.114;2023-03-05T04:34:19;99921.13;;;2.79;100.00
63190;BME280;49286;44.460;26.114;2023-03-05T04:36:45;99906.41;;;2.78;100.00
63190;BME280;49286;44.460;26.114;2023-03-05T04:39:10;99920.63;;;2.59;100.00
63190;BME280;49286;44.460;26.114;2023-03-05T04:41:36;99865.16;;;2.49;100.00
63190;BME280;49286;44.460;26.114;2023-03-05T04:44:01;99795.09;;;2.05;100.00
63190;BME280;49286;44.460;26.114;2023-03-05T04:46:27;99790.59;;;1.98;100.00
63190;BME280;49286;44.460;26.114;2023-03-05T04:48:54;99917.28;;;2.63;100.00
63190;BME280;49286;44.460;26.114;2023-03-05T04:51:19;99874.56;;;2.44;100.00
63190;BME280;49286;44.460;26.114;2023-03-05T04:53:45;99889.56;;;2.59;100.00
63190;BME280;49286;44.460;26.114;2023-03-05T04:56:10;99877.25;;;2.14;100.00
63190;BME280;49286;44.460;26.114;2023-03-05T04:58:36;99882.25;;;2.41;100.00
63190;BME280;49286;44.460;26.114;2023-03-05T05:01:02;99901.63;;;2.59;100.00
63190;BME280;49286;44.460;26.114;2023-03-05T05:03:29;99906.09;;;2.64;100.00
63190;BME280;49286;44.460;26.114;2023-03-05T05:05:55;99753.13;;;1.82;100.00
63190;BME280;49286;44.460;26.114;2023-03-05T05:08:22;99897.50;;;2.65;100.00
63190;BME280;49286;44.460;26.114;2023-03-05T05:11:04;99892.03;;;2.53;100.00
63190;BME280;49286;44.460;26.114;2023-03-05T05:13:31;99939.31;;;2.82;100.00
63190;BME280;49286;44.460;26.114;2023-03-05T05:15:57;99823.66;;;2.10;100.00
63190;BME280;49286;44.460;26.114;2023-03-05T05:18:23;99919.94;;;2.65;100.00
63190;BME280;49286;44.460;26.114;2023-03-05T05:20:49;99954.25;;;2.56;100.00
63190;BME280;49286;44.460;26.114;2023-03-05T05:23:15;99852.91;;;1.41;100.00
63190;BME280;49286;44.460;26.114;2023-03-05T05:25:41;99809.34;;;1.55;100.00
63190;BME280;49286;44.460;26.114;2023-03-05T05:28:09;99835.69;;;1.41;100.00
63190;BME280;49286;44.460;26.114;2023-03-05T05:30:34;99847.34;;;1.59;100.00
63190;BME280;49286;44.460;26.114;2023-03-05T05:33:00;99819.88;;;1.29;100.00
63190;BME280;49286;44.460;26.114;2023-03-05T05:35:26;99850.47;;;1.47;100.00
63190;BME280;49286;44.460;26.114;2023-03-05T05:37:51;99805.41;;;1.37;100.00
63190;BME280;49286;44.460;26.114;2023-03-05T05:40:17;99825.72;;;1.88;100.00
63190;BME280;49286;44.460;26.114;2023-03-05T05:42:42;99949.00;;;2.54;100.00
63190;BME280;49286;44.460;26.114;2023-03-05T05:45:09;99924.13;;;2.25;100.00
63190;BME280;49286;44.460;26.114;2023-03-05T05:47:35;99782.00;;;1.31;100.00
63190;BME280;49286;44.460;26.114;2023-03-05T05:50:01;99831.81;;;1.57;100.00
63190;BME280;49286;44.460;26.114;2023-03-05T05:52:26;99943.00;;;1.89;100.00
63190;BME280;49286;44.460;26.114;2023-03-05T05:54:51;99838.41;;;1.46;100.00
63190;BME280;49286;44.460;26.114;2023-03-05T05:57:17;99884.16;;;1.80;100.00
63190;BME280;49286;44.460;26.114;2023-03-05T05:59:42;99810.75;;;1.12;100.00
63190;BME280;49286;44.460;26.114;2023-03-05T06:02:08;99824.78;;;1.20;100.00
63190;BME280;49286;44.460;26.114;2023-03-05T06:04:35;99920.59;;;1.89;100.00
63190;BME280;49286;44.460;26.114;2023-03-05T06:07:01;99813.03;;;1.01;100.00
63190;BME280;49286;44.460;26.114;2023-03-05T06:09:27;99934.44;;;1.90;100.00
63190;BME280;49286;44.460;26.114;2023-03-05T06:11:53;99813.19;;;1.07;100.00
63190;BME280;49286;44.460;26.114;2023-03-05T06:14:18;99912.50;;;1.76;100.00
63190;BME280;49286;44.460;26.114;2023-03-05T06:16:44;99866.56;;;1.68;100.00
63190;BME280;49286;44.460;26.114;2023-03-05T06:19:13;99925.31;;;2.04;100.00
63190;BME280;49286;44.460;26.114;2023-03-05T06:21:39;99928.16;;;2.14;100.00
63190;BME280;49286;44.460;26.114;2023-03-05T06:24:05;99831.94;;;1.62;100.00
63190;BME280;49286;44.460;26.114;2023-03-05T06:26:31;99794.22;;;1.37;100.00
63190;BME280;49286;44.460;26.114;2023-03-05T06:28:56;99792.81;;;1.50;100.00
63190;BME280;49286;44.460;26.114;2023-03-05T06:31:24;99884.56;;;2.30;100.00
63190;BME280;49286;44.460;26.114;2023-03-05T06:33:51;99821.94;;;2.09;100.00
63190;BME280;49286;44.460;26.114;2023-03-05T06:36:20;99940.59;;;2.63;100.00
63190;BME280;49286;44.460;26.114;2023-03-05T06:38:46;99981.06;;;2.94;100.00
63190;BME280;49286;44.460;26.114;2023-03-05T06:41:14;99950.00;;;2.96;100.00
63190;BME280;49286;44.460;26.114;2023-03-05T06:43:42;99983.75;;;2.98;100.00
63190;BME280;49286;44.460;26.114;2023-03-05T06:46:22;99849.09;;;2.26;100.00
63190;BME280;49286;44.460;26.114;2023-03-05T06:48:49;99997.31;;;3.25;100.00
63190;BME280;49286;44.460;26.114;2023-03-05T06:51:25;100030.19;;;3.26;100.00
63190;BME280;49286;44.460;26.114;2023-03-05T06:53:52;100030.88;;;3.57;100.00
63190;BME280;49286;44.460;26.114;2023-03-05T06:56:18;100024.69;;;3.50;100.00
63190;BME280;49286;44.460;26.114;2023-03-05T06:58:46;100042.69;;;3.43;100.00
63190;BME280;49286;44.460;26.114;2023-03-05T07:01:13;99907.31;;;2.80;100.00
63190;BME280;49286;44.460;26.114;2023-03-05T07:03:39;100076.22;;;3.74;100.00
63190;BME280;49286;44.460;26.114;2023-03-05T07:06:07;100022.09;;;3.50;100.00
63190;BME280;49286;44.460;26.114;2023-03-05T07:08:34;100067.06;;;3.90;100.00
63190;BME280;49286;44.460;26.114;2023-03-05T07:11:00;100094.41;;;4.15;100.00
63190;BME280;49286;44.460;26.114;2023-03-05T07:13:26;100099.66;;;4.18;100.00
63190;BME280;49286;44.460;26.114;2023-03-05T07:15:51;100032.94;;;3.72;100.00
63190;BME280;49286;44.460;26.114;2023-03-05T07:18:17;100127.41;;;4.19;100.00
63190;BME280;49286;44.460;26.114;2023-03-05T07:20:42;100037.53;;;3.85;100.00
63190;BME280;49286;44.460;26.114;2023-03-05T07:23:08;100125.88;;;4.29;100.00
63190;BME280;49286;44.460;26.114;2023-03-05T07:25:37;100183.59;;;4.58;100.00
63190;BME280;49286;44.460;26.114;2023-03-05T07:28:04;100046.81;;;3.74;100.00
63190;BME280;49286;44.460;26.114;2023-03-05T07:30:32;100176.75;;;4.62;100.00
63190;BME280;49286;44.460;26.114;2023-03-05T07:32:57;100056.94;;;4.02;100.00
63190;BME280;49286;44.460;26.114;2023-03-05T07:35:23;100080.03;;;4.33;100.00
63190;BME280;49286;44.460;26.114;2023-03-05T07:37:49;100052.00;;;3.74;100.00
63190;BME280;49286;44.460;26.114;2023-03-05T07:40:15;100156.38;;;4.38;100.00
63190;BME280;49286;44.460;26.114;2023-03-05T07:42:40;100073.03;;;4.27;100.00
63190;BME280;49286;44.460;26.114;2023-03-05T07:45:06;100078.16;;;4.26;100.00
63190;BME280;49286;44.460;26.114;2023-03-05T07:47:32;100184.78;;;4.74;100.00
63190;BME280;49286;44.460;26.114;2023-03-05T07:49:57;100121.94;;;4.07;100.00
63190;BME280;49286;44.460;26.114;2023-03-05T07:52:23;100072.59;;;4.07;100.00
63190;BME280;49286;44.460;26.114;2023-03-05T07:54:48;100170.56;;;4.99;100.00
63190;BME280;49286;44.460;26.114;2023-03-05T07:57:14;100193.00;;;4.94;100.00
63190;BME280;49286;44.460;26.114;2023-03-05T07:59:40;100114.00;;;4.42;100.00
63190;BME280;49286;44.460;26.114;2023-03-05T08:02:06;100136.19;;;4.70;100.00
63190;BME280;49286;44.460;26.114;2023-03-05T08:04:31;100192.28;;;5.03;100.00
63190;BME280;49286;44.460;26.114;2023-03-05T08:06:58;100171.94;;;4.82;100.00
63190;BME280;49286;44.460;26.114;2023-03-05T08:09:24;100188.94;;;4.64;100.00
63190;BME280;49286;44.460;26.114;2023-03-05T08:11:49;100163.22;;;4.78;100.00
63190;BME280;49286;44.460;26.114;2023-03-05T08:14:15;100201.81;;;5.02;100.00
63190;BME280;49286;44.460;26.114;2023-03-05T08:16:40;100172.56;;;4.70;100.00
63190;BME280;49286;44.460;26.114;2023-03-05T08:19:06;100187.03;;;5.00;100.00
63190;BME280;49286;44.460;26.114;2023-03-05T08:21:33;100183.50;;;4.98;100.00
63190;BME280;49286;44.460;26.114;2023-03-05T08:24:01;100058.53;;;4.38;100.00
63190;BME280;49286;44.460;26.114;2023-03-05T08:26:29;100152.69;;;4.72;100.00
63190;BME280;49286;44.460;26.114;2023-03-05T08:31:15;100178.03;;;5.29;100.00
63190;BME280;49286;44.460;26.114;2023-03-05T08:33:41;100082.97;;;4.98;100.00
63190;BME280;49286;44.460;26.114;2023-03-05T08:36:08;100052.81;;;4.58;100.00
63190;BME280;49286;44.460;26.114;2023-03-05T08:38:34;100074.34;;;5.01;100.00
63190;BME280;49286;44.460;26.114;2023-03-05T08:41:00;100170.16;;;5.80;100.00
63190;BME280;49286;44.460;26.114;2023-03-05T08:43:26;100159.19;;;5.99;100.00
63190;BME280;49286;44.460;26.114;2023-03-05T08:45:51;100058.66;;;5.48;100.00
63190;BME280;49286;44.460;26.114;2023-03-05T08:48:19;100070.28;;;5.71;100.00
63190;BME280;49286;44.460;26.114;2023-03-05T08:50:44;100187.22;;;6.16;100.00
63190;BME280;49286;44.460;26.114;2023-03-05T08:53:10;100071.88;;;5.63;100.00
63190;BME280;49286;44.460;26.114;2023-03-05T08:55:36;100174.34;;;6.26;100.00
63190;BME280;49286;44.460;26.114;2023-03-05T08:58:02;100165.09;;;6.50;100.00
63190;BME280;49286;44.460;26.114;2023-03-05T09:00:28;100165.69;;;7.02;100.00
63190;BME280;49286;44.460;26.114;2023-03-05T09:02:53;100063.66;;;6.70;100.00
63190;BME280;49286;44.460;26.114;2023-03-05T09:05:19;100168.31;;;7.04;100.00
63190;BME280;49286;44.460;26.114;2023-03-05T09:07:44;100049.47;;;6.43;100.00
63190;BME280;49286;44.460;26.114;2023-03-05T09:10:11;100144.38;;;7.51;100.00
63190;BME280;49286;44.460;26.114;2023-03-05T09:12:41;100048.34;;;7.05;100.00
63190;BME280;49286;44.460;26.114;2023-03-05T09:15:08;100145.41;;;7.68;100.00
63190;BME280;49286;44.460;26.114;2023-03-05T09:17:35;100153.09;;;7.50;100.00
63190;BME280;49286;44.460;26.114;2023-03-05T09:20:03;100164.03;;;7.07;100.00
63190;BME280;49286;44.460;26.114;2023-03-05T09:22:30;100067.63;;;7.26;100.00
63190;BME280;49286;44.460;26.114;2023-03-05T09:24:55;100032.72;;;7.10;100.00
63190;BME280;49286;44.460;26.114;2023-03-05T09:27:21;100149.78;;;7.71;100.00
63190;BME280;49286;44.460;26.114;2023-03-05T09:29:47;100106.81;;;7.29;100.00
63190;BME280;49286;44.460;26.114;2023-03-05T09:32:12;100147.66;;;7.25;100.00
63190;BME280;49286;44.460;26.114;2023-03-05T09:34:38;100138.16;;;7.35;100.00
63190;BME280;49286;44.460;26.114;2023-03-05T09:37:03;100120.94;;;7.57;100.00
63190;BME280;49286;44.460;26.114;2023-03-05T09:39:29;100040.69;;;7.30;100.00
63190;BME280;49286;44.460;26.114;2023-03-05T09:53:15;100002.59;;;7.59;100.00
63190;BME280;49286;44.460;26.114;2023-03-05T09:55:49;100029.84;;;8.18;100.00
63190;BME280;49286;44.460;26.114;2023-03-05T09:58:34;100123.22;;;8.45;100.00
63190;BME280;49286;44.460;26.114;2023-03-05T10:01:12;100037.72;;;8.20;100.00
63190;BME280;49286;44.460;26.114;2023-03-05T10:06:21;100048.81;;;7.76;100.00
63190;BME280;49286;44.460;26.114;2023-03-05T10:14:21;99959.31;;;8.35;100.00
63190;BME280;49286;44.460;26.114;2023-03-05T10:17:15;100090.22;;;8.98;100.00
63190;BME280;49286;44.460;26.114;2023-03-05T10:28:49;100063.19;;;9.42;100.00
63190;BME280;49286;44.460;26.114;2023-03-05T10:31:36;100061.47;;;9.27;100.00
63190;BME280;49286;44.460;26.114;2023-03-05T10:42:39;100043.97;;;8.71;100.00
63190;BME280;49286;44.460;26.114;2023-03-05T10:45:16;100027.41;;;9.34;100.00
63190;BME280;49286;44.460;26.114;2023-03-05T10:50:25;99899.22;;;8.92;100.00
63190;BME280;49286;44.460;26.114;2023-03-05T10:55:32;99989.81;;;9.67;100.00
63190;BME280;49286;44.460;26.114;2023-03-05T10:57:57;99926.19;;;9.19;100.00
63190;BME280;49286;44.460;26.114;2023-03-05T11:00:27;99989.72;;;9.85;100.00
63190;BME280;49286;44.460;26.114;2023-03-05T11:03:02;99976.38;;;10.42;100.00
63190;BME280;49286;44.460;26.114;2023-03-05T11:08:35;100009.06;;;9.44;97.82
63190;BME280;49286;44.460;26.114;2023-03-05T11:11:10;99890.78;;;10.26;96.68
63190;BME280;49286;44.460;26.114;2023-03-05T11:16:29;99962.16;;;11.60;92.32
63190;BME280;49286;44.460;26.114;2023-03-05T11:19:15;99978.50;;;11.04;90.38
63190;BME280;49286;44.460;26.114;2023-03-05T11:21:42;99975.56;;;10.20;95.36
63190;BME280;49286;44.460;26.114;2023-03-05T11:24:12;99963.81;;;11.69;93.61
63190;BME280;49286;44.460;26.114;2023-03-05T11:26:52;99968.28;;;10.70;90.45
63190;BME280;49286;44.460;26.114;2023-03-05T11:29:27;99859.38;;;11.15;90.10
63190;BME280;49286;44.460;26.114;2023-03-05T11:31:54;99967.75;;;12.06;86.97
63190;BME280;49286;44.460;26.114;2023-03-05T11:34:24;99910.69;;;12.12;85.66
63190;BME280;49286;44.460;26.114;2023-03-05T11:39:24;99947.91;;;11.01;94.27
63190;BME280;49286;44.460;26.114;2023-03-05T11:41:54;99955.44;;;12.11;84.27
63190;BME280;49286;44.460;26.114;2023-03-05T11:46:53;99945.25;;;11.03;81.18
63190;BME280;49286;44.460;26.114;2023-03-05T11:49:23;99818.22;;;10.25;88.29
63190;BME280;49286;44.460;26.114;2023-03-05T11:52:27;99903.31;;;11.72;79.14
63190;BME280;49286;44.460;26.114;2023-03-05T11:55:15;99925.88;;;11.93;74.98
63190;BME280;49286;44.460;26.114;2023-03-05T12:00:18;99923.00;;;12.10;76.42
63190;BME280;49286;44.460;26.114;2023-03-05T12:02:50;99746.22;;;9.62;82.48
63190;BME280;49286;44.460;26.114;2023-03-05T12:05:17;99783.91;;;10.51;87.94
63190;BME280;49286;44.460;26.114;2023-03-05T12:07:46;99907.03;;;11.56;88.12
63190;BME280;49286;44.460;26.114;2023-03-05T12:10:18;99884.13;;;10.90;89.38
63190;BME280;49286;44.460;26.114;2023-03-05T12:12:56;99909.91;;;11.34;89.30
63190;BME280;49286;44.460;26.114;2023-03-05T12:15:40;99905.63;;;11.29;92.04
63190;BME280;49286;44.460;26.114;2023-03-05T12:18:17;99892.72;;;11.06;92.93
63190;BME280;49286;44.460;26.114;2023-03-05T12:23:50;99772.88;;;10.17;100.00
63190;BME280;49286;44.460;26.114;2023-03-05T12:26:16;99886.94;;;10.71;100.00
63190;BME280;49286;44.460;26.114;2023-03-05T12:31:35;99878.41;;;11.34;100.00
63190;BME280;49286;44.460;26.114;2023-03-05T12:39:48;99866.97;;;10.56;100.00
63190;BME280;49286;44.460;26.114;2023-03-05T12:47:40;99771.28;;;10.90;100.00
63190;BME280;49286;44.460;26.114;2023-03-05T12:58:05;99867.56;;;10.85;100.00
63190;BME280;49286;44.460;26.114;2023-03-05T13:00:55;99749.13;;;10.35;100.00
63190;BME280;49286;44.460;26.114;2023-03-05T13:03:26;99746.44;;;10.41;100.00
63190;BME280;49286;44.460;26.114;2023-03-05T13:05:56;99866.34;;;11.16;100.00
63190;BME280;49286;44.460;26.114;2023-03-05T13:08:29;99746.81;;;9.98;100.00
63190;BME280;49286;44.460;26.114;2023-03-05T13:10:58;99739.03;;;9.87;100.00
63190;BME280;49286;44.460;26.114;2023-03-05T13:13:26;99840.91;;;10.33;100.00
63190;BME280;49286;44.460;26.114;2023-03-05T13:15:52;99742.59;;;9.79;100.00
63190;BME280;49286;44.460;26.114;2023-03-05T13:18:28;99854.06;;;10.26;100.00
63190;BME280;49286;44.460;26.114;2023-03-05T13:21:13;99751.91;;;10.15;100.00
63190;BME280;49286;44.460;26.114;2023-03-05T13:23:55;99860.41;;;10.97;100.00
63190;BME280;49286;44.460;26.114;2023-03-05T13:26:28;99761.88;;;9.70;100.00
63190;BME280;49286;44.460;26.114;2023-03-05T13:29:15;99836.22;;;10.69;100.00
63190;BME280;49286;44.460;26.114;2023-03-05T13:34:23;99860.19;;;10.29;100.00
63190;BME280;49286;44.460;26.114;2023-03-05T13:39:24;99704.94;;;9.89;100.00
63190;BME280;49286;44.460;26.114;2023-03-05T13:42:13;99823.31;;;10.46;100.00
63190;BME280;49286;44.460;26.114;2023-03-05T13:44:39;99845.00;;;10.67;100.00
63190;BME280;49286;44.460;26.114;2023-03-05T13:47:07;99743.22;;;10.08;100.00
63190;BME280;49286;44.460;26.114;2023-03-05T13:49:34;99739.50;;;9.17;100.00
63190;BME280;49286;44.460;26.114;2023-03-05T13:51:59;99843.78;;;9.98;100.00
63190;BME280;49286;44.460;26.114;2023-03-05T13:54:26;99848.78;;;10.27;100.00
63190;BME280;49286;44.460;26.114;2023-03-05T13:59:20;99711.28;;;9.62;100.00
63190;BME280;49286;44.460;26.114;2023-03-05T14:01:47;99813.34;;;9.79;100.00
63190;BME280;49286;44.460;26.114;2023-03-05T14:06:51;99840.09;;;10.21;100.00
63190;BME280;49286;44.460;26.114;2023-03-05T14:09:26;99845.41;;;10.16;100.00
63190;BME280;49286;44.460;26.114;2023-03-05T14:11:55;99837.34;;;10.42;100.00
63190;BME280;49286;44.460;26.114;2023-03-05T14:14:22;99811.38;;;10.10;100.00
63190;BME280;49286;44.460;26.114;2023-03-05T14:16:49;99715.63;;;9.67;100.00
63190;BME280;49286;44.460;26.114;2023-03-05T14:19:37;99836.50;;;10.37;100.00
63190;BME280;49286;44.460;26.114;2023-03-05T14:22:04;99826.91;;;10.38;100.00
63190;BME280;49286;44.460;26.114;2023-03-05T14:24:31;99818.97;;;10.44;100.00
63190;BME280;49286;44.460;26.114;2023-03-05T14:27:01;99806.84;;;10.33;100.00